sensor_id;sensor_type;location;lat;lon;timestamp;temperature;humidity
15359;DHT22;7779;49.596;11.070;2024-01-16T00:01:46;1.80;66.30
15359;DHT22;7779;49.596;11.070;2024-01-16T00:04:11;1.80;66.30
15359;DHT22;7779;49.596;11.070;2024-01-16T00:06:41;1.80;66.30
15359;DHT22;7779;49.596;11.070;2024-01-16T00:09:08;1.80;66.30
15359;DHT22;7779;49.596;11.070;2024-01-16T00:11:44;1.80;66.30
15359;DHT22;7779;49.596;11.070;2024-01-16T00:14:10;1.80;66.10
15359;DHT22;7779;49.596;11.070;2024-01-16T00:16:43;1.80;66.20
15359;DHT22;7779;49.596;11.070;2024-01-16T00:19:10;1.70;66.10
15359;DHT22;7779;49.596;11.070;2024-01-16T00:21:41;1.80;66.30
15359;DHT22;7779;49.596;11.070;2024-01-16T00:24:07;1.80;66.20
15359;DHT22;7779;49.596;11.070;2024-01-16T00:26:33;1.80;66.30
15359;DHT22;7779;49.596;11.070;2024-01-16T00:28:59;1.70;66.20
15359;DHT22;7779;49.596;11.070;2024-01-16T00:31:25;1.70;66.20
15359;DHT22;7779;49.596;11.070;2024-01-16T00:33:51;1.70;66.20
15359;DHT22;7779;49.596;11.070;2024-01-16T00:36:17;1.70;66.20
15359;DHT22;7779;49.596;11.070;2024-01-16T00:38:42;1.70;66.10
15359;DHT22;7779;49.596;11.070;2024-01-16T00:41:08;1.70;66.10
15359;DHT22;7779;49.596;11.070;2024-01-16T00:43:34;1.70;66.00
15359;DHT22;7779;49.596;11.070;2024-01-16T00:46:01;1.70;66.00
15359;DHT22;7779;49.596;11.070;2024-01-16T00:48:26;1.70;66.40
15359;DHT22;7779;49.596;11.070;2024-01-16T00:50:52;1.70;66.10
15359;DHT22;7779;49.596;11.070;2024-01-16T00:53:18;1.70;66.10
15359;DHT22;7779;49.596;11.070;2024-01-16T00:55:44;1.70;66.10
15359;DHT22;7779;49.596;11.070;2024-01-16T00:58:09;1.70;66.10
15359;DHT22;7779;49.596;11.070;2024-01-16T01:00:35;1.70;66.20
15359;DHT22;7779;49.596;11.070;2024-01-16T01:03:03;1.70;66.10
15359;DHT22;7779;49.596;11.070;2024-01-16T01:05:29;1.70;66.10
15359;DHT22;7779;49.596;11.070;2024-01-16T01:07:56;1.70;66.20
15359;DHT22;7779;49.596;11.070;2024-01-16T01:10:22;1.70;66.10
15359;DHT22;7779;49.596;11.070;2024-01-16T01:12:48;1.70;66.10
15359;DHT22;7779;49.596;11.070;2024-01-16T01:15:15;1.70;66.10
15359;DHT22;7779;49.596;11.070;2024-01-16T01:17:41;1.70;66.20
15359;DHT22;7779;49.596;11.070;2024-01-16T01:20:08;1.70;66.10
15359;DHT22;7779;49.596;11.070;2024-01-16T01:22:34;1.60;66.00
15359;DHT22;7779;49.596;11.070;2024-01-16T01:24:59;1.60;66.00
15359;DHT22;7779;49.596;11.070;2024-01-16T01:27:25;1.70;66.10
15359;DHT22;7779;49.596;11.070;2024-01-16T01:29:51;1.70;66.00
15359;DHT22;7779;49.596;11.070;2024-01-16T01:32:17;1.60;66.00
15359;DHT22;7779;49.596;11.070;2024-01-16T01:34:42;1.60;66.00
15359;DHT22;7779;49.596;11.070;2024-01-16T01:37:08;1.60;66.00
15359;DHT22;7779;49.596;11.070;2024-01-16T01:39:34;1.70;66.00
15359;DHT22;7779;49.596;11.070;2024-01-16T01:42:00;1.60;66.00
15359;DHT22;7779;49.596;11.070;2024-01-16T01:44:26;1.60;66.00
15359;DHT22;7779;49.596;11.070;2024-01-16T01:46:54;1.70;66.10
15359;DHT22;7779;49.596;11.070;2024-01-16T01:49:22;1.60;66.00
15359;DHT22;7779;49.596;11.070;2024-01-16T01:51:48;1.60;65.90
15359;DHT22;7779;49.596;11.070;2024-01-16T01:54:15;1.60;66.00
15359;DHT22;7779;49.596;11.070;2024-01-16T01:56:47;1.60;65.90
15359;DHT22;7779;49.596;11.070;2024-01-16T01:59:17;1.60;65.90
15359;DHT22;7779;49.596;11.070;2024-01-16T02:01:46;1.60;65.90
15359;DHT22;7779;49.596;11.070;2024-01-16T02:04:14;1.60;65.90
15359;DHT22;7779;49.596;11.070;2024-01-16T02:06:43;1.60;65.90
15359;DHT22;7779;49.596;11.070;2024-01-16T02:09:10;1.60;65.90
15359;DHT22;7779;49.596;11.070;2024-01-16T02:11:39;1.60;65.90
15359;DHT22;7779;49.596;11.070;2024-01-16T02:14:06;1.60;65.90
15359;DHT22;7779;49.596;11.070;2024-01-16T02:16:38;1.60;65.90
15359;DHT22;7779;49.596;11.070;2024-01-16T02:19:05;1.60;65.80
15359;DHT22;7779;49.596;11.070;2024-01-16T02:21:38;1.60;65.80
15359;DHT22;7779;49.596;11.070;2024-01-16T02:24:10;1.60;65.80
15359;DHT22;7779;49.596;11.070;2024-01-16T02:26:37;1.60;65.80
15359;DHT22;7779;49.596;11.070;2024-01-16T02:29:03;1.60;65.80
15359;DHT22;7779;49.596;11.070;2024-01-16T02:31:32;1.60;65.90
15359;DHT22;7779;49.596;11.070;2024-01-16T02:33:58;1.60;65.90
15359;DHT22;7779;49.596;11.070;2024-01-16T02:36:25;1.60;65.90
15359;DHT22;7779;49.596;11.070;2024-01-16T02:38:51;1.60;65.90
15359;DHT22;7779;49.596;11.070;2024-01-16T02:41:18;1.60;65.90
15359;DHT22;7779;49.596;11.070;2024-01-16T02:43:44;1.70;66.00
15359;DHT22;7779;49.596;11.070;2024-01-16T02:46:10;1.70;66.00
15359;DHT22;7779;49.596;11.070;2024-01-16T02:48:36;1.60;65.80
15359;DHT22;7779;49.596;11.070;2024-01-16T02:51:03;1.70;66.00
15359;DHT22;7779;49.596;11.070;2024-01-16T02:53:29;1.70;66.00
15359;DHT22;7779;49.596;11.070;2024-01-16T02:55:56;1.70;65.90
15359;DHT22;7779;49.596;11.070;2024-01-16T02:58:28;1.70;65.90
15359;DHT22;7779;49.596;11.070;2024-01-16T03:00:56;1.70;65.90
15359;DHT22;7779;49.596;11.070;2024-01-16T03:03:23;1.70;66.00
15359;DHT22;7779;49.596;11.070;2024-01-16T03:05:50;1.60;65.80
15359;DHT22;7779;49.596;11.070;2024-01-16T03:08:15;1.60;65.80
15359;DHT22;7779;49.596;11.070;2024-01-16T03:10:41;1.60;65.80
15359;DHT22;7779;49.596;11.070;2024-01-16T03:13:07;1.70;65.90
15359;DHT22;7779;49.596;11.070;2024-01-16T03:15:33;1.60;65.80
15359;DHT22;7779;49.596;11.070;2024-01-16T03:17:59;1.60;65.80
15359;DHT22;7779;49.596;11.070;2024-01-16T03:20:29;1.60;65.80
15359;DHT22;7779;49.596;11.070;2024-01-16T03:22:55;1.60;65.80
15359;DHT22;7779;49.596;11.070;2024-01-16T03:25:20;1.60;65.80
15359;DHT22;7779;49.596;11.070;2024-01-16T03:27:46;1.60;65.80
15359;DHT22;7779;49.596;11.070;2024-01-16T03:30:12;1.60;65.80
15359;DHT22;7779;49.596;11.070;2024-01-16T03:32:38;1.60;65.80
15359;DHT22;7779;49.596;11.070;2024-01-16T03:35:05;1.60;65.80
15359;DHT22;7779;49.596;11.070;2024-01-16T03:37:32;1.60;65.80
15359;DHT22;7779;49.596;11.070;2024-01-16T03:39:58;1.60;65.80
15359;DHT22;7779;49.596;11.070;2024-01-16T03:42:24;1.60;65.80
15359;DHT22;7779;49.596;11.070;2024-01-16T03:44:50;1.60;65.80
15359;DHT22;7779;49.596;11.070;2024-01-16T03:47:16;1.60;65.90
15359;DHT22;7779;49.596;11.070;2024-01-16T03:49:42;1.60;65.90
15359;DHT22;7779;49.596;11.070;2024-01-16T03:52:08;1.60;65.80
15359;DHT22;7779;49.596;11.070;2024-01-16T03:54:33;1.60;65.80
15359;DHT22;7779;49.596;11.070;2024-01-16T03:56:59;1.60;65.80
15359;DHT22;7779;49.596;11.070;2024-01-16T03:59:25;1.60;66.50
15359;DHT22;7779;49.596;11.070;2024-01-16T04:01:51;1.60;65.80
15359;DHT22;7779;49.596;11.070;2024-01-16T04:04:16;1.60;65.80
15359;DHT22;7779;49.596;11.070;2024-01-16T04:06:42;1.60;65.80
15359;DHT22;7779;49.596;11.070;2024-01-16T04:09:09;1.60;65.80
15359;DHT22;7779;49.596;11.070;2024-01-16T04:11:35;1.60;65.80
15359;DHT22;7779;49.596;11.070;2024-01-16T04:14:01;1.60;65.90
15359;DHT22;7779;49.596;11.070;2024-01-16T04:16:27;1.60;65.80
15359;DHT22;7779;49.596;11.070;2024-01-16T04:18:53;1.60;65.80
15359;DHT22;7779;49.596;11.070;2024-01-16T04:21:19;1.60;65.80
15359;DHT22;7779;49.596;11.070;2024-01-16T04:23:45;1.60;65.70
15359;DHT22;7779;49.596;11.070;2024-01-16T04:26:11;1.60;65.70
15359;DHT22;7779;49.596;11.070;2024-01-16T04:28:36;1.60;65.70
15359;DHT22;7779;49.596;11.070;2024-01-16T04:31:03;1.50;65.60
15359;DHT22;7779;49.596;11.070;2024-01-16T04:33:29;1.50;65.60
15359;DHT22;7779;49.596;11.070;2024-01-16T04:35:56;1.50;64.80
15359;DHT22;7779;49.596;11.070;2024-01-16T04:38:22;1.50;65.50
15359;DHT22;7779;49.596;11.070;2024-01-16T04:40:47;1.50;65.40
15359;DHT22;7779;49.596;11.070;2024-01-16T04:43:13;1.40;65.20
15359;DHT22;7779;49.596;11.070;2024-01-16T04:45:39;1.40;65.30
15359;DHT22;7779;49.596;11.070;2024-01-16T04:48:05;1.40;65.00
15359;DHT22;7779;49.596;11.070;2024-01-16T04:50:31;1.30;64.90
15359;DHT22;7779;49.596;11.070;2024-01-16T04:52:59;1.30;65.00
15359;DHT22;7779;49.596;11.070;2024-01-16T04:55:29;1.20;64.90
15359;DHT22;7779;49.596;11.070;2024-01-16T04:57:56;1.10;64.50
15359;DHT22;7779;49.596;11.070;2024-01-16T05:00:22;1.10;65.00
15359;DHT22;7779;49.596;11.070;2024-01-16T05:02:49;1.10;65.20
15359;DHT22;7779;49.596;11.070;2024-01-16T05:05:15;1.10;65.30
15359;DHT22;7779;49.596;11.070;2024-01-16T05:07:41;1.00;65.90
15359;DHT22;7779;49.596;11.070;2024-01-16T05:10:10;1.00;65.30
15359;DHT22;7779;49.596;11.070;2024-01-16T05:12:38;1.00;65.50
15359;DHT22;7779;49.596;11.070;2024-01-16T05:15:06;1.00;66.20
15359;DHT22;7779;49.596;11.070;2024-01-16T05:17:32;0.90;65.50
15359;DHT22;7779;49.596;11.070;2024-01-16T05:19:59;1.00;66.20
15359;DHT22;7779;49.596;11.070;2024-01-16T05:22:24;0.90;65.50
15359;DHT22;7779;49.596;11.070;2024-01-16T05:24:51;0.90;65.50
15359;DHT22;7779;49.596;11.070;2024-01-16T05:27:17;0.90;65.60
15359;DHT22;7779;49.596;11.070;2024-01-16T05:29:42;0.90;65.60
15359;DHT22;7779;49.596;11.070;2024-01-16T05:32:08;0.90;65.60
15359;DHT22;7779;49.596;11.070;2024-01-16T05:34:34;0.90;65.70
15359;DHT22;7779;49.596;11.070;2024-01-16T05:36:59;0.90;65.70
15359;DHT22;7779;49.596;11.070;2024-01-16T05:39:25;0.90;65.80
15359;DHT22;7779;49.596;11.070;2024-01-16T05:41:52;0.90;65.90
15359;DHT22;7779;49.596;11.070;2024-01-16T05:44:18;0.90;65.90
15359;DHT22;7779;49.596;11.070;2024-01-16T05:46:43;0.90;66.00
15359;DHT22;7779;49.596;11.070;2024-01-16T05:49:09;0.90;66.00
15359;DHT22;7779;49.596;11.070;2024-01-16T05:51:35;0.90;66.00
15359;DHT22;7779;49.596;11.070;2024-01-16T05:54:02;0.90;66.00
15359;DHT22;7779;49.596;11.070;2024-01-16T05:56:30;1.00;66.10
15359;DHT22;7779;49.596;11.070;2024-01-16T05:58:56;1.00;66.10
15359;DHT22;7779;49.596;11.070;2024-01-16T06:01:22;1.00;66.20
15359;DHT22;7779;49.596;11.070;2024-01-16T06:03:48;1.00;66.20
15359;DHT22;7779;49.596;11.070;2024-01-16T06:06:15;1.00;66.20
15359;DHT22;7779;49.596;11.070;2024-01-16T06:08:41;1.00;66.20
15359;DHT22;7779;49.596;11.070;2024-01-16T06:11:07;1.10;66.30
15359;DHT22;7779;49.596;11.070;2024-01-16T06:13:33;1.10;66.20
15359;DHT22;7779;49.596;11.070;2024-01-16T06:15:58;1.10;66.20
15359;DHT22;7779;49.596;11.070;2024-01-16T06:18:24;1.10;66.20
15359;DHT22;7779;49.596;11.070;2024-01-16T06:20:50;1.10;66.10
15359;DHT22;7779;49.596;11.070;2024-01-16T06:23:15;1.10;66.10
15359;DHT22;7779;49.596;11.070;2024-01-16T06:25:41;1.10;66.20
15359;DHT22;7779;49.596;11.070;2024-01-16T06:28:07;1.10;66.20
15359;DHT22;7779;49.596;11.070;2024-01-16T06:30:33;1.10;66.10
15359;DHT22;7779;49.596;11.070;2024-01-16T06:32:58;1.10;66.10
15359;DHT22;7779;49.596;11.070;2024-01-16T06:35:25;1.10;66.10
15359;DHT22;7779;49.596;11.070;2024-01-16T06:37:50;1.20;66.10
15359;DHT22;7779;49.596;11.070;2024-01-16T06:40:16;1.20;66.20
15359;DHT22;7779;49.596;11.070;2024-01-16T06:42:42;1.20;66.10
15359;DHT22;7779;49.596;11.070;2024-01-16T06:45:08;1.20;66.10
15359;DHT22;7779;49.596;11.070;2024-01-16T06:47:34;1.20;66.10
15359;DHT22;7779;49.596;11.070;2024-01-16T06:50:00;1.20;66.10
15359;DHT22;7779;49.596;11.070;2024-01-16T06:52:25;1.20;66.00
15359;DHT22;7779;49.596;11.070;2024-01-16T06:54:51;1.20;66.00
15359;DHT22;7779;49.596;11.070;2024-01-16T06:57:17;1.20;66.00
15359;DHT22;7779;49.596;11.070;2024-01-16T06:59:42;1.20;66.00
15359;DHT22;7779;49.596;11.070;2024-01-16T07:02:08;1.20;66.00
15359;DHT22;7779;49.596;11.070;2024-01-16T07:04:34;1.20;66.00
15359;DHT22;7779;49.596;11.070;2024-01-16T07:06:59;1.20;66.00
15359;DHT22;7779;49.596;11.070;2024-01-16T07:09:26;1.20;66.00
15359;DHT22;7779;49.596;11.070;2024-01-16T07:11:53;1.20;66.00
15359;DHT22;7779;49.596;11.070;2024-01-16T07:14:19;1.20;66.00
15359;DHT22;7779;49.596;11.070;2024-01-16T07:16:45;1.20;66.00
15359;DHT22;7779;49.596;11.070;2024-01-16T07:19:11;1.20;65.90
15359;DHT22;7779;49.596;11.070;2024-01-16T07:21:37;1.20;66.00
15359;DHT22;7779;49.596;11.070;2024-01-16T07:24:04;1.20;65.90
15359;DHT22;7779;49.596;11.070;2024-01-16T07:26:30;1.20;65.90
15359;DHT22;7779;49.596;11.070;2024-01-16T07:28:56;1.20;65.90
15359;DHT22;7779;49.596;11.070;2024-01-16T07:31:22;1.20;65.90
15359;DHT22;7779;49.596;11.070;2024-01-16T07:33:48;1.20;65.80
15359;DHT22;7779;49.596;11.070;2024-01-16T07:36:14;1.20;65.80
15359;DHT22;7779;49.596;11.070;2024-01-16T07:38:40;1.30;65.90
15359;DHT22;7779;49.596;11.070;2024-01-16T07:41:06;1.30;66.00
15359;DHT22;7779;49.596;11.070;2024-01-16T07:43:32;1.30;65.90
15359;DHT22;7779;49.596;11.070;2024-01-16T07:45:58;1.30;66.00
15359;DHT22;7779;49.596;11.070;2024-01-16T07:48:24;1.30;65.90
15359;DHT22;7779;49.596;11.070;2024-01-16T07:50:50;1.30;65.90
15359;DHT22;7779;49.596;11.070;2024-01-16T07:53:16;1.30;66.00
15359;DHT22;7779;49.596;11.070;2024-01-16T07:55:42;1.30;66.00
15359;DHT22;7779;49.596;11.070;2024-01-16T07:58:13;1.30;66.00
15359;DHT22;7779;49.596;11.070;2024-01-16T08:00:39;1.30;66.00
15359;DHT22;7779;49.596;11.070;2024-01-16T08:03:08;1.40;66.10
15359;DHT22;7779;49.596;11.070;2024-01-16T08:05:37;1.40;66.10
15359;DHT22;7779;49.596;11.070;2024-01-16T08:08:04;1.40;66.10
15359;DHT22;7779;49.596;11.070;2024-01-16T08:10:30;1.40;66.10
15359;DHT22;7779;49.596;11.070;2024-01-16T08:12:56;1.50;66.20
15359;DHT22;7779;49.596;11.070;2024-01-16T08:15:22;1.50;66.20
15359;DHT22;7779;49.596;11.070;2024-01-16T08:17:47;1.50;66.20
15359;DHT22;7779;49.596;11.070;2024-01-16T08:20:13;1.50;66.20
15359;DHT22;7779;49.596;11.070;2024-01-16T08:22:39;1.60;66.20
15359;DHT22;7779;49.596;11.070;2024-01-16T08:25:05;1.60;66.10
15359;DHT22;7779;49.596;11.070;2024-01-16T08:27:31;1.60;66.10
15359;DHT22;7779;49.596;11.070;2024-01-16T08:29:58;1.70;66.20
15359;DHT22;7779;49.596;11.070;2024-01-16T08:32:24;1.70;66.20
15359;DHT22;7779;49.596;11.070;2024-01-16T08:34:49;1.70;66.30
15359;DHT22;7779;49.596;11.070;2024-01-16T08:37:15;1.80;66.20
15359;DHT22;7779;49.596;11.070;2024-01-16T08:39:41;1.80;66.90
15359;DHT22;7779;49.596;11.070;2024-01-16T08:42:07;1.80;66.30
15359;DHT22;7779;49.596;11.070;2024-01-16T08:44:37;1.90;66.30
15359;DHT22;7779;49.596;11.070;2024-01-16T08:47:04;1.90;66.20
15359;DHT22;7779;49.596;11.070;2024-01-16T08:49:32;2.00;66.20
15359;DHT22;7779;49.596;11.070;2024-01-16T08:51:58;2.00;66.10
15359;DHT22;7779;49.596;11.070;2024-01-16T08:54:25;2.10;66.20
15359;DHT22;7779;49.596;11.070;2024-01-16T08:56:52;2.10;66.20
15359;DHT22;7779;49.596;11.070;2024-01-16T08:59:18;2.10;66.10
15359;DHT22;7779;49.596;11.070;2024-01-16T09:01:43;2.20;66.20
15359;DHT22;7779;49.596;11.070;2024-01-16T09:04:09;2.20;66.10
15359;DHT22;7779;49.596;11.070;2024-01-16T09:06:35;2.30;66.10
15359;DHT22;7779;49.596;11.070;2024-01-16T09:09:01;2.30;66.00
15359;DHT22;7779;49.596;11.070;2024-01-16T09:11:29;2.40;65.90
15359;DHT22;7779;49.596;11.070;2024-01-16T09:13:55;2.40;65.80
15359;DHT22;7779;49.596;11.070;2024-01-16T09:16:21;2.50;65.80
15359;DHT22;7779;49.596;11.070;2024-01-16T09:18:47;2.50;65.60
15359;DHT22;7779;49.596;11.070;2024-01-16T09:21:13;2.50;65.60
15359;DHT22;7779;49.596;11.070;2024-01-16T09:23:39;2.50;65.50
15359;DHT22;7779;49.596;11.070;2024-01-16T09:26:05;2.60;65.50
15359;DHT22;7779;49.596;11.070;2024-01-16T09:28:31;2.60;65.60
15359;DHT22;7779;49.596;11.070;2024-01-16T09:30:56;2.60;65.60
15359;DHT22;7779;49.596;11.070;2024-01-16T09:33:23;2.60;65.50
15359;DHT22;7779;49.596;11.070;2024-01-16T09:35:51;2.70;65.50
15359;DHT22;7779;49.596;11.070;2024-01-16T09:38:17;2.70;65.50
15359;DHT22;7779;49.596;11.070;2024-01-16T09:40:42;2.70;65.40
15359;DHT22;7779;49.596;11.070;2024-01-16T09:43:09;2.80;65.40
15359;DHT22;7779;49.596;11.070;2024-01-16T09:45:37;2.80;65.30
15359;DHT22;7779;49.596;11.070;2024-01-16T09:48:05;2.80;65.20
15359;DHT22;7779;49.596;11.070;2024-01-16T09:50:31;2.80;65.00
15359;DHT22;7779;49.596;11.070;2024-01-16T09:52:57;2.80;64.80
15359;DHT22;7779;49.596;11.070;2024-01-16T09:55:23;2.80;64.70
15359;DHT22;7779;49.596;11.070;2024-01-16T09:57:52;2.80;64.70
15359;DHT22;7779;49.596;11.070;2024-01-16T10:00:19;2.80;64.80
15359;DHT22;7779;49.596;11.070;2024-01-16T10:02:46;2.80;64.90
15359;DHT22;7779;49.596;11.070;2024-01-16T10:05:13;2.80;64.80
15359;DHT22;7779;49.596;11.070;2024-01-16T10:07:40;2.80;64.80
15359;DHT22;7779;49.596;11.070;2024-01-16T10:10:09;2.80;64.70
15359;DHT22;7779;49.596;11.070;2024-01-16T10:12:39;2.80;64.70
15359;DHT22;7779;49.596;11.070;2024-01-16T10:15:06;2.90;64.70
15359;DHT22;7779;49.596;11.070;2024-01-16T10:17:40;2.90;64.60
15359;DHT22;7779;49.596;11.070;2024-01-16T10:20:08;2.90;64.70
15359;DHT22;7779;49.596;11.070;2024-01-16T10:22:41;2.90;64.60
15359;DHT22;7779;49.596;11.070;2024-01-16T10:25:18;2.90;64.50
15359;DHT22;7779;49.596;11.070;2024-01-16T10:27:45;2.90;64.60
15359;DHT22;7779;49.596;11.070;2024-01-16T10:30:11;2.90;64.60
15359;DHT22;7779;49.596;11.070;2024-01-16T10:32:39;2.90;64.50
15359;DHT22;7779;49.596;11.070;2024-01-16T10:35:10;2.90;64.60
15359;DHT22;7779;49.596;11.070;2024-01-16T10:37:52;2.90;64.50
15359;DHT22;7779;49.596;11.070;2024-01-16T10:40:23;3.00;64.50
15359;DHT22;7779;49.596;11.070;2024-01-16T10:45:29;3.10;65.00
15359;DHT22;7779;49.596;11.070;2024-01-16T10:48:05;3.10;65.10
15359;DHT22;7779;49.596;11.070;2024-01-16T10:50:36;3.20;64.70
15359;DHT22;7779;49.596;11.070;2024-01-16T10:53:07;3.20;65.00
15359;DHT22;7779;49.596;11.070;2024-01-16T10:58:19;3.40;64.80
15359;DHT22;7779;49.596;11.070;2024-01-16T11:00:52;3.40;64.80
15359;DHT22;7779;49.596;11.070;2024-01-16T11:03:46;3.50;64.70
15359;DHT22;7779;49.596;11.070;2024-01-16T11:06:17;3.50;64.00
15359;DHT22;7779;49.596;11.070;2024-01-16T11:08:47;3.50;64.50
15359;DHT22;7779;49.596;11.070;2024-01-16T11:11:15;3.60;64.50
15359;DHT22;7779;49.596;11.070;2024-01-16T11:13:41;3.60;64.30
15359;DHT22;7779;49.596;11.070;2024-01-16T11:16:12;3.60;64.10
15359;DHT22;7779;49.596;11.070;2024-01-16T11:18:39;3.60;63.80
15359;DHT22;7779;49.596;11.070;2024-01-16T11:21:11;3.60;64.00
15359;DHT22;7779;49.596;11.070;2024-01-16T11:23:39;3.60;63.60
15359;DHT22;7779;49.596;11.070;2024-01-16T11:26:33;3.60;63.80
15359;DHT22;7779;49.596;11.070;2024-01-16T11:31:57;3.50;63.00
15359;DHT22;7779;49.596;11.070;2024-01-16T11:34:52;3.50;62.90
15359;DHT22;7779;49.596;11.070;2024-01-16T11:37:41;3.50;62.70
15359;DHT22;7779;49.596;11.070;2024-01-16T11:40:26;3.50;63.00
15359;DHT22;7779;49.596;11.070;2024-01-16T11:42:57;3.50;63.20
15359;DHT22;7779;49.596;11.070;2024-01-16T11:48:13;3.50;63.90
15359;DHT22;7779;49.596;11.070;2024-01-16T11:50:40;3.60;63.70
15359;DHT22;7779;49.596;11.070;2024-01-16T11:53:06;3.60;64.10
15359;DHT22;7779;49.596;11.070;2024-01-16T11:55:34;3.70;64.30
15359;DHT22;7779;49.596;11.070;2024-01-16T12:00:41;3.70;63.80
15359;DHT22;7779;49.596;11.070;2024-01-16T12:03:13;3.80;64.00
15359;DHT22;7779;49.596;11.070;2024-01-16T12:05:42;3.80;64.00
15359;DHT22;7779;49.596;11.070;2024-01-16T12:08:09;3.80;63.90
15359;DHT22;7779;49.596;11.070;2024-01-16T12:10:45;3.80;63.70
15359;DHT22;7779;49.596;11.070;2024-01-16T12:13:13;3.90;63.30
15359;DHT22;7779;49.596;11.070;2024-01-16T12:15:38;3.90;63.80
15359;DHT22;7779;49.596;11.070;2024-01-16T12:18:04;3.90;63.70
15359;DHT22;7779;49.596;11.070;2024-01-16T12:20:32;3.90;63.90
15359;DHT22;7779;49.596;11.070;2024-01-16T12:23:04;4.00;64.00
15359;DHT22;7779;49.596;11.070;2024-01-16T12:25:35;4.00;63.80
15359;DHT22;7779;49.596;11.070;2024-01-16T12:28:03;4.10;61.80
15359;DHT22;7779;49.596;11.070;2024-01-16T12:30:31;4.20;64.00
15359;DHT22;7779;49.596;11.070;2024-01-16T12:33:05;4.20;64.00
15359;DHT22;7779;49.596;11.070;2024-01-16T12:35:44;4.30;63.40
15359;DHT22;7779;49.596;11.070;2024-01-16T12:38:14;4.40;62.20
15359;DHT22;7779;49.596;11.070;2024-01-16T12:40:50;4.40;63.60
15359;DHT22;7779;49.596;11.070;2024-01-16T12:43:17;4.50;63.00
15359;DHT22;7779;49.596;11.070;2024-01-16T12:45:44;4.50;63.40
15359;DHT22;7779;49.596;11.070;2024-01-16T12:48:10;4.50;61.20
15359;DHT22;7779;49.596;11.070;2024-01-16T12:50:37;4.60;63.50
15359;DHT22;7779;49.596;11.070;2024-01-16T12:53:04;4.60;63.50
15359;DHT22;7779;49.596;11.070;2024-01-16T12:55:35;4.70;63.50
15359;DHT22;7779;49.596;11.070;2024-01-16T12:58:19;4.80;61.30
15359;DHT22;7779;49.596;11.070;2024-01-16T13:00:54;4.80;62.40
15359;DHT22;7779;49.596;11.070;2024-01-16T13:03:25;4.80;63.20
15359;DHT22;7779;49.596;11.070;2024-01-16T13:05:59;4.80;62.70
15359;DHT22;7779;49.596;11.070;2024-01-16T13:08:26;4.80;62.30
15359;DHT22;7779;49.596;11.070;2024-01-16T13:11:08;4.80;62.40
15359;DHT22;7779;49.596;11.070;2024-01-16T13:13:37;4.80;61.50
15359;DHT22;7779;49.596;11.070;2024-01-16T13:16:04;4.80;62.40
15359;DHT22;7779;49.596;11.070;2024-01-16T13:18:31;4.70;60.10
15359;DHT22;7779;49.596;11.070;2024-01-16T13:20:58;4.80;62.20
15359;DHT22;7779;49.596;11.070;2024-01-16T13:23:26;4.70;62.00
15359;DHT22;7779;49.596;11.070;2024-01-16T13:25:53;4.80;62.10
15359;DHT22;7779;49.596;11.070;2024-01-16T13:28:25;4.80;62.10
15359;DHT22;7779;49.596;11.070;2024-01-16T13:30:51;4.70;61.80
15359;DHT22;7779;49.596;11.070;2024-01-16T13:33:18;4.70;61.80
15359;DHT22;7779;49.596;11.070;2024-01-16T13:35:45;4.70;61.60
15359;DHT22;7779;49.596;11.070;2024-01-16T13:38:12;4.70;61.50
15359;DHT22;7779;49.596;11.070;2024-01-16T13:40:40;4.70;61.40
15359;DHT22;7779;49.596;11.070;2024-01-16T13:43:06;4.60;61.10
15359;DHT22;7779;49.596;11.070;2024-01-16T13:45:33;4.60;61.10
15359;DHT22;7779;49.596;11.070;2024-01-16T13:48:00;4.60;60.90
15359;DHT22;7779;49.596;11.070;2024-01-16T13:50:27;4.50;60.70
15359;DHT22;7779;49.596;11.070;2024-01-16T13:52:53;4.50;60.60
15359;DHT22;7779;49.596;11.070;2024-01-16T13:55:20;4.40;60.50
15359;DHT22;7779;49.596;11.070;2024-01-16T13:57:46;4.40;60.50
15359;DHT22;7779;49.596;11.070;2024-01-16T14:00:13;4.30;60.40
15359;DHT22;7779;49.596;11.070;2024-01-16T14:02:45;4.20;60.00
15359;DHT22;7779;49.596;11.070;2024-01-16T14:05:14;4.20;60.00
15359;DHT22;7779;49.596;11.070;2024-01-16T14:07:42;4.10;60.10
15359;DHT22;7779;49.596;11.070;2024-01-16T14:10:08;4.00;60.00
15359;DHT22;7779;49.596;11.070;2024-01-16T14:12:42;3.90;59.90
15359;DHT22;7779;49.596;11.070;2024-01-16T14:15:09;3.90;59.80
15359;DHT22;7779;49.596;11.070;2024-01-16T14:17:54;3.80;59.80
15359;DHT22;7779;49.596;11.070;2024-01-16T14:20:22;3.70;59.40
15359;DHT22;7779;49.596;11.070;2024-01-16T14:22:50;3.60;59.60
15359;DHT22;7779;49.596;11.070;2024-01-16T14:25:18;3.50;58.90
15359;DHT22;7779;49.596;11.070;2024-01-16T14:27:48;3.50;59.50
15359;DHT22;7779;49.596;11.070;2024-01-16T14:30:21;3.40;59.50
15359;DHT22;7779;49.596;11.070;2024-01-16T14:32:46;3.30;59.50
15359;DHT22;7779;49.596;11.070;2024-01-16T14:35:14;3.20;59.50
15359;DHT22;7779;49.596;11.070;2024-01-16T14:37:42;3.10;59.50
15359;DHT22;7779;49.596;11.070;2024-01-16T14:40:09;3.10;59.70
15359;DHT22;7779;49.596;11.070;2024-01-16T14:42:39;3.00;59.80
15359;DHT22;7779;49.596;11.070;2024-01-16T14:45:06;3.00;59.90
15359;DHT22;7779;49.596;11.070;2024-01-16T14:47:33;2.90;60.00
15359;DHT22;7779;49.596;11.070;2024-01-16T14:50:02;2.90;60.10
15359;DHT22;7779;49.596;11.070;2024-01-16T14:52:29;2.90;60.20
15359;DHT22;7779;49.596;11.070;2024-01-16T14:55:01;2.80;60.20
15359;DHT22;7779;49.596;11.070;2024-01-16T14:57:28;2.80;60.30
15359;DHT22;7779;49.596;11.070;2024-01-16T14:59:56;2.80;60.40
15359;DHT22;7779;49.596;11.070;2024-01-16T15:02:22;2.80;60.50
15359;DHT22;7779;49.596;11.070;2024-01-16T15:04:47;2.80;60.50
15359;DHT22;7779;49.596;11.070;2024-01-16T15:07:14;2.80;60.60
15359;DHT22;7779;49.596;11.070;2024-01-16T15:09:40;2.80;60.50
15359;DHT22;7779;49.596;11.070;2024-01-16T15:12:06;2.80;60.60
15359;DHT22;7779;49.596;11.070;2024-01-16T15:14:33;2.70;60.40
15359;DHT22;7779;49.596;11.070;2024-01-16T15:17:00;2.80;60.50
15359;DHT22;7779;49.596;11.070;2024-01-16T15:19:28;2.70;60.40
15359;DHT22;7779;49.596;11.070;2024-01-16T15:21:54;2.70;60.40
15359;DHT22;7779;49.596;11.070;2024-01-16T15:24:20;2.70;60.40
15359;DHT22;7779;49.596;11.070;2024-01-16T15:26:55;2.70;60.30
15359;DHT22;7779;49.596;11.070;2024-01-16T15:29:24;2.70;60.40
15359;DHT22;7779;49.596;11.070;2024-01-16T15:31:51;2.60;60.30
15359;DHT22;7779;49.596;11.070;2024-01-16T15:34:21;2.60;60.30
15359;DHT22;7779;49.596;11.070;2024-01-16T15:36:47;2.60;60.30
15359;DHT22;7779;49.596;11.070;2024-01-16T15:39:14;2.50;60.30
15359;DHT22;7779;49.596;11.070;2024-01-16T15:41:42;2.50;60.30
15359;DHT22;7779;49.596;11.070;2024-01-16T15:44:09;2.50;60.30
15359;DHT22;7779;49.596;11.070;2024-01-16T15:46:56;2.40;60.30
15359;DHT22;7779;49.596;11.070;2024-01-16T15:49:23;2.40;60.00
15359;DHT22;7779;49.596;11.070;2024-01-16T15:51:49;2.40;60.30
15359;DHT22;7779;49.596;11.070;2024-01-16T15:54:14;2.30;60.30
15359;DHT22;7779;49.596;11.070;2024-01-16T15:56:41;2.30;60.30
15359;DHT22;7779;49.596;11.070;2024-01-16T15:59:07;2.20;60.20
15359;DHT22;7779;49.596;11.070;2024-01-16T16:01:33;2.20;60.20